Time;durP1;ratioP1;P1;durP2;ratioP2;P2;SDS_P1;SDS_P2;PMS_P1;PMS_P2;Temp;Humidity;BMP_temperature;BMP_pressure;BME280_temperature;BME280_humidity;BME280_pressure;Samples;Min_cycle;Max_cycle;Signal;HPM_P1;HPM_P2
2022/12/09 00:02:19;;;;;;;17.45;9.57;;;0.90;99.90;;;;;;5050601;28;20128;-69
2022/12/09 00:04:45;;;;;;;15.32;9.43;;;0.70;99.90;;;;;;5051649;28;20097;-69
2022/12/09 00:07:10;;;;;;;17.80;10.68;;;0.70;99.90;;;;;;5050348;28;20116;-69
2022/12/09 00:09:36;;;;;;;16.67;10.15;;;0.80;99.90;;;;;;5050486;28;20567;-69
2022/12/09 00:12:02;;;;;;;18.17;11.55;;;0.90;99.90;;;;;;5050538;28;20119;-69
2022/12/09 00:14:28;;;;;;;16.48;10.23;;;0.80;99.90;;;;;;5051111;28;20080;-69
2022/12/09 00:16:53;;;;;;;13.93;9.07;;;0.90;99.90;;;;;;5050105;28;20182;-69
2022/12/09 00:19:19;;;;;;;19.00;10.88;;;0.70;99.90;;;;;;5051664;28;20037;-69
2022/12/09 00:21:44;;;;;;;20.90;11.98;;;0.90;99.90;;;;;;5050258;28;20045;-69
2022/12/09 00:24:12;;;;;;;15.93;9.60;;;0.70;99.90;;;;;;5051083;28;20044;-69
2022/12/09 00:26:38;;;;;;;20.50;10.93;;;0.80;99.90;;;;;;5050231;28;20033;-69
2022/12/09 00:29:04;;;;;;;18.45;9.70;;;0.80;99.90;;;;;;5050454;28;20516;-69
2022/12/09 00:31:32;;;;;;;22.33;10.43;;;0.70;99.90;;;;;;5051379;28;20068;-68
2022/12/09 00:34:00;;;;;;;16.30;9.75;;;0.60;99.90;;;;;;5051120;28;20047;-69
2022/12/09 00:36:27;;;;;;;16.70;10.55;;;0.80;99.90;;;;;;5051502;28;20617;-69
2022/12/09 00:38:54;;;;;;;19.48;10.65;;;0.70;99.90;;;;;;5050158;28;20044;-69
2022/12/09 00:41:20;;;;;;;15.70;9.82;;;0.60;99.90;;;;;;5051423;28;20467;-69
2022/12/09 00:43:46;;;;;;;19.50;10.40;;;0.70;99.90;;;;;;5050848;28;20079;-69
2022/12/09 00:46:13;;;;;;;16.20;10.50;;;0.70;99.90;;;;;;5057105;28;20053;-68
2022/12/09 00:48:40;;;;;;;17.02;10.30;;;0.60;99.90;;;;;;5055954;28;20044;-68
2022/12/09 00:51:08;;;;;;;16.30;10.30;;;0.70;99.90;;;;;;5051338;28;20041;-69
2022/12/09 00:53:34;;;;;;;15.38;9.00;;;0.60;99.90;;;;;;5050983;28;20041;-69
2022/12/09 00:56:00;;;;;;;15.98;10.43;;;0.50;99.90;;;;;;5051078;28;20115;-68
2022/12/09 00:58:25;;;;;;;14.85;8.93;;;0.60;99.90;;;;;;5051113;28;20064;-69
2022/12/09 01:00:54;;;;;;;13.77;9.10;;;0.50;99.90;;;;;;5050963;28;20048;-69
2022/12/09 01:03:20;;;;;;;15.65;9.40;;;0.60;99.90;;;;;;5050947;28;20079;-69
2022/12/09 01:05:46;;;;;;;15.65;9.57;;;0.50;99.90;;;;;;5049817;28;20029;-71
2022/12/09 01:08:12;;;;;;;16.38;9.90;;;0.70;99.90;;;;;;5051223;28;20517;-71
2022/12/09 01:10:40;;;;;;;15.30;9.60;;;0.70;99.90;;;;;;5049829;28;20044;-71
2022/12/09 01:13:06;;;;;;;15.02;9.45;;;0.60;99.90;;;;;;5051224;28;20157;-68
2022/12/09 01:15:31;;;;;;;17.75;9.45;;;0.70;99.90;;;;;;5054705;28;20140;-68
2022/12/09 01:17:57;;;;;;;16.85;9.93;;;0.50;99.90;;;;;;5053398;28;20037;-68
2022/12/09 01:20:23;;;;;;;20.15;9.68;;;0.50;99.90;;;;;;5053475;28;20060;-69
2022/12/09 01:22:49;;;;;;;18.27;10.68;;;0.50;99.90;;;;;;5054327;28;20044;-69
2022/12/09 01:25:14;;;;;;;18.30;9.82;;;0.50;99.90;;;;;;5053413;28;20556;-68
2022/12/09 01:27:40;;;;;;;16.15;9.48;;;0.70;99.90;;;;;;5054595;28;20067;-69
2022/12/09 01:30:08;;;;;;;15.95;10.30;;;0.80;99.90;;;;;;5054611;28;20044;-69
2022/12/09 01:32:33;;;;;;;16.17;9.48;;;0.80;99.90;;;;;;5054011;28;20045;-68
2022/12/09 01:34:59;;;;;;;17.98;10.50;;;0.90;99.90;;;;;;5054396;28;20045;-69
2022/12/09 01:37:25;;;;;;;16.92;9.93;;;0.80;99.90;;;;;;5054443;28;20418;-69
2022/12/09 01:39:50;;;;;;;18.08;9.65;;;0.80;99.90;;;;;;5053047;28;20049;-69
2022/12/09 01:42:22;;;;;;;17.50;9.68;;;0.80;99.90;;;;;;5053976;28;20120;-68
2022/12/09 01:45:18;;;;;;;19.08;9.82;;;0.90;99.90;;;;;;5054332;28;20492;-69
2022/12/09 01:47:45;;;;;;;18.25;9.65;;;1.00;99.90;;;;;;5052936;28;20044;-69
2022/12/09 01:50:11;;;;;;;15.75;8.43;;;1.00;99.90;;;;;;5054392;28;20120;-69
2022/12/09 01:52:37;;;;;;;17.23;9.38;;;1.00;99.90;;;;;;5036180;28;20099;-68
2022/12/09 01:55:02;;;;;;;20.05;10.80;;;0.90;99.90;;;;;;5053937;28;20041;-69
2022/12/09 01:57:28;;;;;;;17.15;9.32;;;1.00;99.90;;;;;;5052986;28;20190;-71
2022/12/09 01:59:54;;;;;;;17.40;8.60;;;0.80;99.90;;;;;;5052990;28;20510;-69
2022/12/09 02:02:21;;;;;;;18.08;9.43;;;0.80;99.90;;;;;;5053615;28;20040;-69
2022/12/09 02:04:48;;;;;;;19.50;10.43;;;1.10;99.90;;;;;;5053773;28;20107;-69
2022/12/09 02:07:14;;;;;;;17.77;10.05;;;1.10;99.90;;;;;;5052480;28;20048;-69
2022/12/09 02:09:41;;;;;;;17.02;9.55;;;1.10;99.90;;;;;;5053925;28;20041;-69
2022/12/09 02:12:32;;;;;;;17.48;9.80;;;1.00;99.90;;;;;;5052665;28;20060;-69
2022/12/09 02:15:10;;;;;;;19.60;9.15;;;0.90;99.90;;;;;;5052439;28;20048;-69
2022/12/09 02:18:00;;;;;;;19.92;9.30;;;1.10;99.90;;;;;;5052328;28;20049;-69
2022/12/09 02:20:45;;;;;;;16.38;8.57;;;1.10;99.90;;;;;;5053674;28;20049;-68
2022/12/09 02:23:22;;;;;;;19.67;9.73;;;1.20;99.90;;;;;;5053224;28;20047;-69
2022/12/09 02:25:55;;;;;;;19.42;10.52;;;1.10;99.90;;;;;;5052463;28;20033;-69
2022/12/09 02:28:30;;;;;;;;;;;1.00;99.90;;;;;;5054014;28;20047;-69
2022/12/09 02:31:05;;;;;;;16.90;9.90;;;1.10;99.90;;;;;;5052338;28;20329;-69
2022/12/09 02:33:36;;;;;;;19.52;9.52;;;1.20;99.90;;;;;;5051653;28;20044;-69
2022/12/09 02:36:16;;;;;;;18.75;10.13;;;1.10;99.90;;;;;;5053230;28;20048;-69
2022/12/09 02:38:43;;;;;;;17.67;9.52;;;1.20;99.90;;;;;;5051964;28;20041;-69
2022/12/09 02:41:20;;;;;;;20.55;9.45;;;0.90;99.90;;;;;;5051884;28;20052;-69
2022/12/09 02:43:53;;;;;;;19.77;10.48;;;1.00;99.90;;;;;;5051545;28;20051;-69
2022/12/09 02:46:20;;;;;;;19.10;9.87;;;0.90;99.90;;;;;;5051766;28;20410;-69
2022/12/09 02:48:51;;;;;;;18.35;9.70;;;0.90;99.90;;;;;;5051634;28;20048;-69
2022/12/09 02:51:19;;;;;;;19.58;9.32;;;1.10;99.90;;;;;;5051804;28;20041;-69
2022/12/09 02:53:50;;;;;;;21.02;9.57;;;0.90;99.90;;;;;;5051574;28;20441;-69
2022/12/09 02:56:17;;;;;;;17.75;9.40;;;0.90;99.90;;;;;;5051921;28;20417;-69
2022/12/09 02:58:43;;;;;;;16.60;10.30;;;0.90;99.90;;;;;;5051698;28;20098;-69
2022/12/09 03:01:29;;;;;;;16.17;9.45;;;0.90;99.90;;;;;;5052662;28;20498;-69
2022/12/09 03:03:55;;;;;;;19.05;9.98;;;0.90;99.90;;;;;;5050921;28;20126;-69
2022/12/09 03:06:27;;;;;;;19.20;10.55;;;1.10;99.90;;;;;;5051292;28;20079;-69
2022/12/09 03:09:01;;;;;;;19.45;10.30;;;0.90;99.90;;;;;;5051269;28;20045;-69
2022/12/09 03:11:28;;;;;;;20.80;9.43;;;1.00;99.90;;;;;;5051260;28;20051;-69
2022/12/09 03:14:02;;;;;;;15.77;9.60;;;0.90;99.90;;;;;;5051100;28;20513;-69
2022/12/09 03:16:27;;;;;;;;;;;1.10;99.90;;;;;;5051882;28;20044;-69
2022/12/09 03:19:04;;;;;;;16.60;9.00;;;0.90;99.90;;;;;;5051361;28;19923;-69
2022/12/09 03:21:33;;;;;;;21.63;10.38;;;0.70;99.90;;;;;;5051359;28;20045;-69
2022/12/09 03:24:00;;;;;;;23.10;10.02;;;1.00;99.90;;;;;;5050554;28;20383;-69
2022/12/09 03:26:29;;;;;;;17.27;9.50;;;1.00;99.90;;;;;;5051088;28;20036;-69
2022/12/09 03:28:57;;;;;;;22.23;10.52;;;0.80;99.90;;;;;;5052031;28;20099;-69
2022/12/09 03:31:25;;;;;;;17.70;9.82;;;0.70;99.90;;;;;;5052150;28;20033;-69
2022/12/09 03:33:56;;;;;;;19.67;9.95;;;0.90;99.90;;;;;;5051855;28;20052;-71
2022/12/09 03:36:25;;;;;;;18.85;10.02;;;0.70;99.90;;;;;;5052045;28;20049;-71
2022/12/09 03:38:52;;;;;;;19.42;11.07;;;0.90;99.90;;;;;;5052050;28;20089;-71
2022/12/09 03:41:30;;;;;;;17.55;10.05;;;0.70;99.90;;;;;;5052236;28;20095;-71
2022/12/09 03:44:03;;;;;;;18.08;10.40;;;0.90;99.90;;;;;;5076048;22;20071;-73
2022/12/09 03:46:29;;;;;;;20.33;11.70;;;0.60;99.90;;;;;;5070897;28;20132;-73
2022/12/09 03:48:56;;;;;;;18.50;11.10;;;0.80;99.90;;;;;;5070599;28;20548;-72
2022/12/09 03:51:40;;;;;;;17.52;9.63;;;0.80;99.90;;;;;;5070809;28;20086;-72
2022/12/09 03:54:14;;;;;;;;;;;0.70;99.90;;;;;;5070474;28;20054;-72
2022/12/09 03:56:43;;;;;;;22.35;10.23;;;0.70;99.90;;;;;;5069028;28;19916;-72
2022/12/09 03:59:12;;;;;;;19.23;11.10;;;0.70;99.90;;;;;;5070448;28;20448;-72
2022/12/09 04:01:39;;;;;;;19.55;9.75;;;0.50;99.90;;;;;;5071782;28;20044;-73
2022/12/09 04:04:05;;;;;;;17.40;10.25;;;0.60;99.90;;;;;;5069950;28;20048;-72
2022/12/09 04:06:31;;;;;;;19.08;10.02;;;0.70;99.90;;;;;;5070319;28;20036;-72
2022/12/09 04:08:56;;;;;;;19.98;10.40;;;0.40;99.90;;;;;;5071826;28;20039;-73
2022/12/09 04:11:22;;;;;;;19.42;10.88;;;0.50;99.90;;;;;;5071668;28;20437;-72
2022/12/09 04:13:48;;;;;;;21.88;11.43;;;0.50;99.90;;;;;;5071233;28;20439;-72
2022/12/09 04:16:13;;;;;;;22.85;12.27;;;0.40;99.90;;;;;;5070427;28;20048;-72
2022/12/09 04:18:39;;;;;;;25.42;12.02;;;0.40;99.90;;;;;;5070211;28;20040;-72
2022/12/09 04:21:06;;;;;;;21.02;10.55;;;0.40;99.90;;;;;;5070084;28;20048;-73
2022/12/09 04:23:32;;;;;;;20.35;11.25;;;0.60;99.90;;;;;;5071250;28;20033;-73
2022/12/09 04:25:57;;;;;;;19.08;10.27;;;0.40;99.90;;;;;;5070371;28;20045;-73
2022/12/09 04:28:23;;;;;;;26.50;11.38;;;0.40;99.90;;;;;;5071288;28;20076;-73
2022/12/09 04:30:48;;;;;;;22.30;11.20;;;0.50;99.90;;;;;;5071042;28;20076;-72
2022/12/09 04:33:14;;;;;;;22.05;10.88;;;0.40;99.90;;;;;;5069996;28;20039;-73
2022/12/09 04:35:40;;;;;;;21.55;11.93;;;0.60;99.90;;;;;;5069863;28;20127;-72
2022/12/09 04:38:05;;;;;;;18.75;10.98;;;0.40;99.90;;;;;;5069909;28;20101;-73
2022/12/09 04:40:31;;;;;;;19.70;11.10;;;0.40;99.90;;;;;;5069859;28;20415;-72
2022/12/09 04:42:57;;;;;;;20.70;10.40;;;0.40;99.90;;;;;;5052821;28;20085;-72
2022/12/09 04:45:23;;;;;;;19.65;10.88;;;0.20;99.90;;;;;;5069665;28;20037;-73
2022/12/09 04:47:48;;;;;;;19.08;10.85;;;0.20;99.90;;;;;;5071259;28;20170;-72
2022/12/09 04:50:14;;;;;;;24.05;11.90;;;0.40;99.90;;;;;;5075119;28;20028;-72
2022/12/09 04:52:40;;;;;;;18.58;10.73;;;0.20;99.90;;;;;;5073508;28;20072;-72
2022/12/09 04:55:06;;;;;;;25.77;10.95;;;0.30;99.90;;;;;;5073595;28;20040;-73
2022/12/09 04:57:32;;;;;;;20.27;11.18;;;0.10;99.90;;;;;;5075104;28;20116;-72
2022/12/09 04:59:57;;;;;;;18.60;10.40;;;0.30;99.90;;;;;;5073517;28;20080;-72
2022/12/09 05:02:23;;;;;;;20.75;11.70;;;0.20;99.90;;;;;;5073557;28;20055;-72
2022/12/09 05:04:48;;;;;;;21.90;10.85;;;0.30;99.90;;;;;;5073405;28;20041;-72
2022/12/09 05:07:14;;;;;;;22.08;11.20;;;0.20;99.90;;;;;;5073565;28;20455;-72
2022/12/09 05:09:40;;;;;;;19.70;10.75;;;0.30;99.90;;;;;;5073628;28;20075;-73
2022/12/09 05:12:05;;;;;;;20.30;10.38;;;0.00;99.90;;;;;;5074585;28;20040;-72
2022/12/09 05:14:31;;;;;;;21.52;10.77;;;0.20;99.90;;;;;;5074483;28;20040;-72
2022/12/09 05:16:57;;;;;;;19.08;9.68;;;0.10;99.90;;;;;;5073603;28;20052;-73
2022/12/09 05:19:22;;;;;;;20.17;10.75;;;0.20;99.90;;;;;;5074493;28;20080;-72
2022/12/09 05:21:48;;;;;;;20.45;11.40;;;0.10;99.90;;;;;;5073072;28;20047;-72
2022/12/09 05:24:13;;;;;;;22.08;11.27;;;0.20;99.90;;;;;;5074252;28;20064;-72
2022/12/09 05:26:39;;;;;;;22.20;11.27;;;0.10;99.90;;;;;;5074690;28;20694;-72
2022/12/09 05:29:05;;;;;;;19.70;10.90;;;0.20;99.90;;;;;;5073159;28;20033;-72
2022/12/09 05:31:30;;;;;;;20.55;12.20;;;0.10;99.90;;;;;;5073364;28;20390;-72
2022/12/09 05:33:57;;;;;;;20.77;11.65;;;0.00;99.90;;;;;;5072648;28;20052;-72
2022/12/09 05:36:26;;;;;;;25.42;13.00;;;0.00;99.90;;;;;;5072998;28;20044;-72
2022/12/09 05:38:52;;;;;;;26.15;11.65;;;-0.10;99.90;;;;;;5074429;28;20144;-72
2022/12/09 05:41:18;;;;;;;20.27;11.80;;;-0.10;99.90;;;;;;5056625;28;20068;-72
2022/12/09 05:43:44;;;;;;;20.88;11.48;;;0.10;99.90;;;;;;5072373;28;20072;-72
2022/12/09 05:46:11;;;;;;;27.00;13.80;;;-0.10;99.90;;;;;;5074212;28;20039;-72
2022/12/09 05:48:37;;;;;;;27.08;13.55;;;0.10;99.90;;;;;;5074159;28;20441;-72
2022/12/09 05:51:05;;;;;;;23.33;12.88;;;0.10;99.90;;;;;;5072754;28;20045;-72
2022/12/09 05:53:32;;;;;;;19.67;12.20;;;-0.10;99.90;;;;;;5072663;28;20501;-72
2022/12/09 05:55:57;;;;;;;23.58;11.68;;;0.10;99.90;;;;;;5072722;28;20076;-72
2022/12/09 05:58:23;;;;;;;22.90;12.75;;;0.00;99.90;;;;;;5072632;28;20095;-72
2022/12/09 06:00:49;;;;;;;19.70;11.65;;;0.00;99.90;;;;;;5072541;28;20040;-72
2022/12/09 06:03:15;;;;;;;27.52;12.48;;;0.00;99.90;;;;;;5073361;28;20035;-72
2022/12/09 06:05:41;;;;;;;25.77;12.82;;;0.00;99.90;;;;;;5073948;28;20408;-72
2022/12/09 06:08:06;;;;;;;19.52;10.57;;;-0.10;99.90;;;;;;5073695;28;20711;-72
2022/12/09 06:10:32;;;;;;;20.92;11.35;;;0.00;99.90;;;;;;5072731;28;20127;-72
2022/12/09 06:12:58;;;;;;;20.95;11.98;;;-0.10;99.90;;;;;;5072346;28;20533;-72
2022/12/09 06:15:24;;;;;;;22.77;12.93;;;-0.10;99.90;;;;;;5072305;28;20520;-72
2022/12/09 06:17:50;;;;;;;21.58;12.95;;;-0.10;99.90;;;;;;5072252;28;20044;-72
2022/12/09 06:20:16;;;;;;;22.52;11.50;;;0.00;99.90;;;;;;5073452;28;20041;-72
2022/12/09 06:22:42;;;;;;;21.20;11.30;;;-0.10;99.90;;;;;;5071982;28;20401;-72
2022/12/09 06:25:08;;;;;;;26.08;13.80;;;-0.10;99.90;;;;;;5072030;28;20040;-72
2022/12/09 06:27:33;;;;;;;25.95;14.70;;;-0.10;99.90;;;;;;5073348;28;20050;-72
2022/12/09 06:29:59;;;;;;;23.08;12.98;;;-0.10;99.90;;;;;;5055530;28;20028;-72
2022/12/09 06:32:25;;;;;;;22.08;12.13;;;-0.20;99.90;;;;;;5071644;28;20041;-72
2022/12/09 06:34:50;;;;;;;19.27;11.90;;;-0.40;99.90;;;;;;5071876;28;20041;-72
2022/12/09 06:37:16;;;;;;;23.98;11.55;;;-0.40;99.90;;;;;;5071880;28;20047;-72
2022/12/09 06:39:42;;;;;;;24.63;12.07;;;-0.30;99.90;;;;;;5071733;28;20048;-72
2022/12/09 06:42:07;;;;;;;22.58;11.77;;;-0.30;99.90;;;;;;5071955;28;20040;-72
2022/12/09 06:44:33;;;;;;;26.83;13.55;;;-0.50;99.90;;;;;;5071206;28;20039;-72
2022/12/09 06:46:59;;;;;;;21.75;11.00;;;-0.50;99.90;;;;;;5072840;28;20097;-72
2022/12/09 06:49:24;;;;;;;18.90;10.40;;;-0.50;99.90;;;;;;5073114;28;20490;-71
2022/12/09 06:51:50;;;;;;;21.80;11.20;;;-0.50;99.90;;;;;;5072917;28;20043;-72
2022/12/09 06:54:16;;;;;;;20.33;11.02;;;-0.30;99.90;;;;;;5071218;28;20407;-72
2022/12/09 06:56:41;;;;;;;21.58;11.00;;;-0.50;99.90;;;;;;5072932;28;20478;-72
2022/12/09 06:59:08;;;;;;;21.23;12.10;;;-0.40;99.90;;;;;;5072831;28;20040;-72
2022/12/09 07:01:35;;;;;;;29.63;14.80;;;-0.30;99.90;;;;;;5071363;28;20071;-72
2022/12/09 07:04:03;;;;;;;21.83;11.93;;;-0.40;99.90;;;;;;5071191;28;20039;-72
2022/12/09 07:06:31;;;;;;;23.40;12.40;;;-0.40;99.90;;;;;;5071586;28;20064;-72
2022/12/09 07:08:59;;;;;;;22.83;12.27;;;-0.50;99.90;;;;;;5072680;28;20032;-72
2022/12/09 07:11:25;;;;;;;21.40;12.02;;;-0.60;99.90;;;;;;5070866;28;20116;-72
2022/12/09 07:13:51;;;;;;;23.90;12.07;;;-0.50;99.90;;;;;;5070994;28;20127;-72
2022/12/09 07:16:17;;;;;;;21.25;11.98;;;-0.40;99.90;;;;;;5072370;28;20028;-72
2022/12/09 07:18:42;;;;;;;29.92;13.75;;;-0.40;99.90;;;;;;5071088;28;20037;-73
2022/12/09 07:21:12;;;;;;;25.83;12.82;;;-0.60;99.90;;;;;;5071289;28;20048;-72
2022/12/09 07:23:38;;;;;;;22.48;12.02;;;-0.40;99.90;;;;;;5070540;28;20040;-73
2022/12/09 07:26:05;;;;;;;22.48;12.70;;;-0.60;99.90;;;;;;5071035;28;20456;-73
2022/12/09 07:28:32;;;;;;;26.30;11.48;;;-0.60;99.90;;;;;;5072282;28;20078;-73
2022/12/09 07:30:57;;;;;;;21.52;12.50;;;-0.60;99.90;;;;;;5072149;28;20047;-72
2022/12/09 07:33:23;;;;;;;23.50;11.20;;;-0.60;99.90;;;;;;5070549;28;20041;-73
2022/12/09 07:35:49;;;;;;;24.58;11.38;;;-0.60;99.90;;;;;;5070641;28;20098;-73
2022/12/09 07:38:14;;;;;;;21.42;11.95;;;-0.60;99.90;;;;;;5071949;28;20540;-73
2022/12/09 07:40:39;;;;;;;24.88;13.23;;;-0.70;99.90;;;;;;5070583;28;20056;-73
2022/12/09 07:43:06;;;;;;;26.50;14.15;;;-0.60;99.90;;;;;;5053673;28;20043;-72
2022/12/09 07:45:35;;;;;;;24.52;13.15;;;-0.40;99.90;;;;;;5071835;28;20052;-73
2022/12/09 07:48:01;;;;;;;24.23;13.35;;;-0.60;99.90;;;;;;5072169;28;20037;-72
2022/12/09 07:50:26;;;;;;;24.85;12.30;;;-0.60;99.90;;;;;;5070901;28;20042;-72
2022/12/09 07:52:52;;;;;;;24.10;12.95;;;-0.70;99.90;;;;;;5071638;28;20409;-72
2022/12/09 07:55:18;;;;;;;24.67;12.65;;;-0.40;99.90;;;;;;5070706;28;20036;-72
2022/12/09 07:57:43;;;;;;;21.17;11.50;;;-0.50;99.90;;;;;;5070551;28;20040;-72
2022/12/09 08:00:10;;;;;;;22.70;13.57;;;-0.40;99.90;;;;;;5053777;28;20106;-73
2022/12/09 08:02:35;;;;;;;22.50;12.70;;;-0.60;99.90;;;;;;5069817;28;20080;-72
2022/12/09 08:05:01;;;;;;;28.15;13.77;;;-0.60;99.90;;;;;;5071320;28;20087;-71
2022/12/09 08:07:27;;;;;;;29.67;14.90;;;-0.50;99.90;;;;;;5053191;28;20037;-71
2022/12/09 08:09:55;;;;;;;22.98;13.57;;;-0.60;99.90;;;;;;5069924;28;20028;-71
2022/12/09 08:12:21;;;;;;;28.17;14.93;;;-0.50;99.90;;;;;;5069331;28;20508;-71
2022/12/09 08:14:47;;;;;;;23.45;13.43;;;-0.40;99.90;;;;;;5070371;28;20089;-71
2022/12/09 08:17:12;;;;;;;29.33;14.50;;;-0.40;99.90;;;;;;5070928;28;20131;-71
2022/12/09 08:19:38;;;;;;;25.20;13.38;;;-0.30;99.90;;;;;;5072137;28;20039;-71
2022/12/09 08:22:03;;;;;;;27.20;13.77;;;-0.40;99.90;;;;;;5070522;28;20094;-71
2022/12/09 08:24:29;;;;;;;24.65;13.25;;;-0.50;99.90;;;;;;5069632;28;20448;-71
2022/12/09 08:26:54;;;;;;;27.05;14.30;;;-0.30;99.90;;;;;;5070851;28;20387;-72
2022/12/09 08:29:20;;;;;;;25.13;12.68;;;-0.20;99.90;;;;;;5070436;28;20068;-71
2022/12/09 08:31:45;;;;;;;28.25;15.10;;;-0.40;99.90;;;;;;5071197;28;20032;-71
2022/12/09 08:34:11;;;;;;;25.70;13.45;;;-0.20;99.90;;;;;;5069648;28;20106;-71
2022/12/09 08:36:37;;;;;;;29.17;13.82;;;-0.20;99.90;;;;;;5070271;28;20040;-71
2022/12/09 08:39:03;;;;;;;31.40;15.07;;;-0.20;99.90;;;;;;5053276;28;20509;-71
2022/12/09 08:41:34;;;;;;;32.00;15.32;;;-0.20;99.90;;;;;;5069688;28;20053;-71
2022/12/09 08:44:19;;;;;;;31.85;15.23;;;-0.10;99.90;;;;;;5070752;28;20091;-71
2022/12/09 08:46:47;;;;;;;30.90;15.25;;;0.00;99.90;;;;;;5069780;28;20072;-71
2022/12/09 08:49:16;;;;;;;34.13;15.70;;;-0.10;99.90;;;;;;5069578;28;20494;-72
2022/12/09 08:51:43;;;;;;;35.83;16.35;;;-0.10;99.90;;;;;;5069650;28;20066;-71
2022/12/09 08:54:09;;;;;;;35.22;16.58;;;0.00;99.90;;;;;;5072581;28;20020;-72
2022/12/09 08:56:35;;;;;;;28.42;16.23;;;0.10;99.90;;;;;;5069740;28;20143;-72
2022/12/09 08:59:01;;;;;;;33.38;15.32;;;0.30;99.90;;;;;;5069603;28;20036;-72
2022/12/09 09:01:32;;;;;;;30.55;15.85;;;0.20;99.90;;;;;;5071019;28;20037;-71
2022/12/09 09:04:01;;;;;;;34.40;16.70;;;0.40;99.90;;;;;;5068556;28;20059;-71
2022/12/09 09:06:27;;;;;;;33.45;15.48;;;0.00;99.90;;;;;;5068953;28;20079;-71
2022/12/09 09:08:55;;;;;;;26.77;14.80;;;0.50;99.90;;;;;;5069503;28;20072;-70
2022/12/09 09:11:20;;;;;;;30.08;16.17;;;0.50;99.90;;;;;;5070484;28;20040;-71
2022/12/09 09:13:49;;;;;;;34.42;17.88;;;0.20;99.90;;;;;;5068877;28;20097;-71
2022/12/09 09:16:21;;;;;;;34.13;16.85;;;0.50;99.90;;;;;;5070596;28;20119;-71
2022/12/09 09:18:47;;;;;;;29.63;16.25;;;0.60;99.90;;;;;;5069256;28;20123;-71
2022/12/09 09:21:14;;;;;;;35.97;17.95;;;0.40;99.90;;;;;;5070346;28;20149;-71
2022/12/09 09:23:41;;;;;;;30.85;16.25;;;0.50;99.90;;;;;;5070154;28;20047;-71
2022/12/09 09:26:12;;;;;;;30.25;15.93;;;0.40;99.90;;;;;;5069055;28;20064;-72
2022/12/09 09:28:39;;;;;;;32.03;16.80;;;0.50;99.90;;;;;;5068847;28;20032;-70
2022/12/09 09:31:07;;;;;;;32.78;17.33;;;0.60;99.90;;;;;;5070304;28;20494;-71
2022/12/09 09:33:33;;;;;;;33.30;18.55;;;0.60;99.90;;;;;;5052167;28;20045;-71
2022/12/09 09:36:00;;;;;;;35.72;17.30;;;0.90;99.90;;;;;;5072647;28;20051;-71
2022/12/09 09:38:27;;;;;;;35.22;18.13;;;0.80;99.90;;;;;;5072913;28;20040;-71
2022/12/09 09:40:53;;;;;;;32.95;17.10;;;0.80;99.90;;;;;;5074367;28;20041;-71
2022/12/09 09:43:26;;;;;;;35.90;17.58;;;0.70;99.90;;;;;;5072364;28;20028;-71
2022/12/09 09:45:54;;;;;;;40.67;20.80;;;1.00;99.90;;;;;;5111843;22;20050;-72
2022/12/09 09:48:26;;;;;;;37.10;19.27;;;0.90;99.90;;;;;;5093176;28;20067;-73
2022/12/09 09:51:02;;;;;;;43.65;21.67;;;1.10;99.90;;;;;;5076340;28;20036;-75
2022/12/09 09:53:30;;;;;;;39.55;20.92;;;1.00;99.90;;;;;;5092938;28;20044;-72
2022/12/09 09:56:10;;;;;;;44.67;21.63;;;0.70;99.90;;;;;;5091776;28;20498;-73
2022/12/09 09:58:38;;;;;;;45.78;20.88;;;1.00;99.90;;;;;;5092985;28;20047;-73
2022/12/09 10:01:08;;;;;;;42.85;21.77;;;1.20;99.90;;;;;;5092949;28;20043;-73
2022/12/09 10:03:54;;;;;;;42.53;21.98;;;1.10;99.90;;;;;;5092487;28;20040;-73
2022/12/09 10:06:28;;;;;;;40.60;21.90;;;1.20;99.90;;;;;;5093161;28;20042;-73
2022/12/09 10:09:03;;;;;;;46.17;22.30;;;1.40;99.90;;;;;;5130171;22;20044;-70
2022/12/09 10:11:39;;;;;;;48.78;22.98;;;0.90;99.90;;;;;;5074958;28;20036;-70
2022/12/09 10:14:32;;;;;;;47.58;22.42;;;1.00;99.90;;;;;;5073037;28;20041;-71
2022/12/09 10:17:19;;;;;;;41.03;20.88;;;1.20;99.90;;;;;;5074215;28;20044;-72
2022/12/09 10:19:48;;;;;;;42.55;21.92;;;1.40;99.90;;;;;;5074316;28;20040;-71
2022/12/09 10:22:20;;;;;;;45.85;22.58;;;1.80;99.90;;;;;;5097793;22;20040;-72
2022/12/09 10:25:16;;;;;;;52.15;21.55;;;1.70;99.90;;;;;;5054317;28;20048;-73
2022/12/09 10:27:47;;;;;;;40.72;21.05;;;1.60;99.90;;;;;;5038164;28;20040;-72
2022/12/09 10:30:18;;;;;;;44.30;22.63;;;1.70;99.90;;;;;;5038957;28;20106;-72
2022/12/09 10:32:43;;;;;;;48.45;23.10;;;2.10;99.90;;;;;;5072787;28;20405;-72
2022/12/09 10:35:21;;;;;;;42.33;20.38;;;2.20;99.90;;;;;;5073108;28;20032;-72
2022/12/09 10:37:50;;;;;;;40.90;20.48;;;2.10;99.90;;;;;;5072460;28;20036;-73
2022/12/09 10:40:35;;;;;;;41.85;19.60;;;2.00;99.90;;;;;;5072407;28;20032;-72
2022/12/09 10:46:09;;;;;;;40.35;20.95;;;2.30;99.90;;;;;;5070051;28;20032;-72
2022/12/09 10:48:36;;;;;;;37.10;17.88;;;2.10;99.90;;;;;;5054437;28;20489;-72
2022/12/09 10:51:21;;;;;;;38.50;19.83;;;1.80;99.90;;;;;;5054769;28;20048;-72
2022/12/09 10:54:00;;;;;;;37.97;20.23;;;1.90;99.90;;;;;;5070231;28;20401;-72
2022/12/09 10:56:34;;;;;;;42.15;21.02;;;2.00;99.90;;;;;;5070362;28;20078;-72
2022/12/09 10:59:24;;;;;;;37.05;19.35;;;2.20;99.90;;;;;;5072746;28;20044;-73
2022/12/09 11:01:50;;;;;;;35.92;18.10;;;1.80;99.90;;;;;;5073253;28;20052;-73
2022/12/09 11:04:28;;;;;;;40.15;20.20;;;1.90;99.90;;;;;;5072866;28;20051;-72
2022/12/09 11:06:57;;;;;;;36.50;19.92;;;2.10;99.90;;;;;;5072714;28;20051;-72
2022/12/09 11:09:36;;;;;;;37.88;19.45;;;2.00;99.90;;;;;;5054568;28;20039;-72
2022/12/09 11:12:14;;;;;;;32.40;17.40;;;2.00;99.90;;;;;;5054241;28;20072;-73
2022/12/09 11:14:48;;;;;;;39.03;20.30;;;2.00;99.90;;;;;;5054565;28;20040;-74
2022/12/09 11:17:22;;;;;;;39.28;18.58;;;1.90;99.90;;;;;;5072299;28;20086;-73
2022/12/09 11:20:17;;;;;;;39.22;19.67;;;2.10;99.90;;;;;;5054614;28;20063;-72
2022/12/09 11:22:44;;;;;;;36.30;19.77;;;1.90;99.90;;;;;;5071819;28;20078;-72
2022/12/09 11:25:25;;;;;;;39.50;21.08;;;2.20;99.90;;;;;;5037806;28;20075;-72
2022/12/09 11:27:55;;;;;;;40.70;20.65;;;2.10;99.90;;;;;;5054298;28;20052;-72
2022/12/09 11:30:39;;;;;;;41.65;20.65;;;2.20;99.90;;;;;;5072030;28;20064;-73
2022/12/09 11:33:06;;;;;;;;;;;2.30;99.90;;;;;;5072353;28;20552;-72
2022/12/09 11:35:51;;;;;;;38.67;18.80;;;2.20;99.90;;;;;;5072137;28;20006;-72
2022/12/09 11:38:37;;;;;;;35.90;19.75;;;2.10;99.90;;;;;;5071938;28;20115;-72
2022/12/09 11:44:34;;;;;;;37.97;20.00;;;2.00;99.90;;;;;;5053533;28;20421;-73
2022/12/09 11:47:09;;;;;;;34.78;18.45;;;2.20;99.90;;;;;;5050573;28;20136;-74
2022/12/09 11:49:52;;;;;;;37.90;20.38;;;2.10;99.90;;;;;;5072073;28;20401;-74
2022/12/09 11:52:17;;;;;;;36.92;18.92;;;2.30;99.90;;;;;;5071726;28;20032;-73
2022/12/09 11:54:53;;;;;;;39.60;20.67;;;2.00;99.90;;;;;;5071710;28;20052;-73
2022/12/09 11:57:42;;;;;;;40.58;19.42;;;2.20;99.90;;;;;;5071533;28;20048;-72
2022/12/09 12:00:24;;;;;;;37.08;20.30;;;2.30;99.90;;;;;;5059473;28;20048;-73
2022/12/09 12:02:58;;;;;;;37.17;19.92;;;2.10;99.90;;;;;;5071570;28;20470;-72
2022/12/09 12:05:37;;;;;;;33.70;18.40;;;2.20;99.90;;;;;;5053882;28;20058;-72
2022/12/09 12:08:19;;;;;;;41.22;22.40;;;2.20;99.90;;;;;;5053855;28;20036;-73
2022/12/09 12:10:53;;;;;;;35.70;18.70;;;2.20;99.90;;;;;;5071738;28;20044;-72
2022/12/09 12:13:30;;;;;;;;;;;2.10;99.90;;;;;;5071684;28;20406;-73
2022/12/09 12:16:05;;;;;;;35.78;19.23;;;2.00;99.90;;;;;;5071381;28;19924;-73
2022/12/09 12:18:49;;;;;;;40.85;21.40;;;2.10;99.90;;;;;;5053733;28;20047;-72
2022/12/09 12:21:33;;;;;;;36.80;19.50;;;2.20;99.90;;;;;;5071404;28;20044;-73
2022/12/09 12:24:14;;;;;;;36.30;19.50;;;2.00;99.90;;;;;;5050621;28;20052;-73
2022/12/09 12:27:19;;;;;;;39.95;19.92;;;2.20;99.90;;;;;;5053049;28;20439;-73
2022/12/09 12:30:00;;;;;;;38.97;20.42;;;2.00;99.90;;;;;;5045884;28;20128;-73
2022/12/09 12:32:49;;;;;;;34.08;18.80;;;2.20;99.90;;;;;;5070948;28;20033;-73
2022/12/09 12:35:27;;;;;;;36.10;19.98;;;2.10;99.90;;;;;;5071315;28;20563;-73
2022/12/09 12:38:24;;;;;;;34.25;19.05;;;2.30;99.90;;;;;;5071236;28;20575;-73
2022/12/09 12:41:20;;;;;;;39.72;19.38;;;2.10;99.90;;;;;;5071325;28;20037;-74
2022/12/09 12:47:22;;;;;;;39.90;20.77;;;2.20;99.90;;;;;;5071219;28;20048;-74
2022/12/09 12:50:24;;;;;;;36.08;20.02;;;2.20;99.90;;;;;;5069986;28;20140;-74
2022/12/09 12:53:08;;;;;;;36.28;19.48;;;2.00;99.90;;;;;;5070795;28;20517;-73
2022/12/09 12:55:46;;;;;;;36.13;18.42;;;2.10;99.90;;;;;;5070720;28;20123;-72
2022/12/09 12:58:35;;;;;;;36.88;19.00;;;2.10;99.90;;;;;;5053034;28;20080;-73
2022/12/09 13:01:10;;;;;;;43.65;20.20;;;2.20;99.90;;;;;;5052987;28;20040;-73
2022/12/09 13:03:59;;;;;;;36.85;19.63;;;2.20;99.90;;;;;;5070728;28;20076;-73